Time;durP1;ratioP1;P1;durP2;ratioP2;P2;SDS_P1;SDS_P2;PMS_P1;PMS_P2;Temp;Humidity;BMP_temperature;BMP_pressure;BME280_temperature;BME280_humidity;BME280_pressure;Samples;Min_cycle;Max_cycle;Signal;HPM_P1;HPM_P2
2021/07/26 00:02:09;;;;;;;10.30;5.47;;;;;;;;;;8205019;28;20504;-72
2021/07/26 00:06:15;;;;;;;8.57;5.47;;;;;;;;;;8202423;28;20491;-73
2021/07/26 00:10:19;;;;;;;7.63;5.20;;;;;;;;;;8209633;28;20373;-74
2021/07/26 00:14:24;;;;;;;10.48;5.28;;;;;;;;;;8231185;28;20413;-73
2021/07/26 00:18:28;;;;;;;8.20;4.60;;;;;;;;;;8229340;28;20468;-72
2021/07/26 00:22:34;;;;;;;7.88;4.70;;;;;;;;;;8229295;28;20045;-73
2021/07/26 00:26:39;;;;;;;7.90;4.43;;;;;;;;;;8194874;28;20364;-73
2021/07/26 00:30:45;;;;;;;7.50;4.65;;;;;;;;;;8210992;28;20045;-72
2021/07/26 00:34:50;;;;;;;6.47;4.32;;;;;;;;;;8212254;28;20482;-72
2021/07/26 00:38:55;;;;;;;5.82;3.60;;;;;;;;;;8228289;28;20460;-72
2021/07/26 00:43:00;;;;;;;5.85;3.80;;;;;;;;;;8228627;28;20503;-72
2021/07/26 00:47:05;;;;;;;4.13;3.17;;;;;;;;;;8228683;28;20042;-73
2021/07/26 00:51:11;;;;;;;3.88;2.78;;;;;;;;;;8228150;28;20384;-73
2021/07/26 00:55:17;;;;;;;4.72;3.03;;;;;;;;;;8211981;28;20368;-73
2021/07/26 00:59:22;;;;;;;6.50;2.67;;;;;;;;;;8211944;28;20373;-72
2021/07/26 01:03:27;;;;;;;3.80;2.88;;;;;;;;;;8177577;28;20408;-73
2021/07/26 01:07:32;;;;;;;6.43;3.13;;;;;;;;;;8195999;28;20457;-73
2021/07/26 01:11:38;;;;;;;5.10;2.88;;;;;;;;;;8193874;28;20453;-74
2021/07/26 01:15:43;;;;;;;7.40;4.05;;;;;;;;;;8194491;28;20381;-74
2021/07/26 01:19:48;;;;;;;9.85;4.35;;;;;;;;;;8193944;28;20369;-74
2021/07/26 01:23:54;;;;;;;9.98;4.82;;;;;;;;;;8209480;28;20037;-74
2021/07/26 01:27:58;;;;;;;9.10;5.18;;;;;;;;;;8195212;28;20053;-73
2021/07/26 01:32:03;;;;;;;11.13;5.13;;;;;;;;;;8194843;28;20397;-74
2021/07/26 01:36:09;;;;;;;8.48;4.53;;;;;;;;;;8193452;28;20344;-73
2021/07/26 01:40:14;;;;;;;6.75;4.28;;;;;;;;;;8192698;28;20046;-73
2021/07/26 01:44:19;;;;;;;8.38;4.18;;;;;;;;;;8195020;28;20064;-73
2021/07/26 01:48:36;;;;;;;6.63;3.58;;;;;;;;;;8194562;28;20353;-73
2021/07/26 01:52:41;;;;;;;7.15;3.53;;;;;;;;;;8192590;28;20404;-73
2021/07/26 01:56:46;;;;;;;6.22;3.70;;;;;;;;;;8193786;28;20511;-72
2021/07/26 02:00:50;;;;;;;6.00;3.10;;;;;;;;;;8177410;28;20338;-72
2021/07/26 02:04:58;;;;;;;4.72;3.47;;;;;;;;;;8225286;28;20477;-73
2021/07/26 02:09:03;;;;;;;4.78;2.97;;;;;;;;;;8208440;28;20071;-72
2021/07/26 02:13:08;;;;;;;6.95;4.32;;;;;;;;;;8208286;28;20337;-73
2021/07/26 02:17:13;;;;;;;5.57;3.35;;;;;;;;;;8223372;28;20049;-72
2021/07/26 02:21:18;;;;;;;5.20;3.53;;;;;;;;;;8225752;28;20377;-73
2021/07/26 02:25:24;;;;;;;6.68;3.30;;;;;;;;;;8225689;28;20049;-72
2021/07/26 02:29:29;;;;;;;6.70;3.90;;;;;;;;;;8225459;28;20350;-72
2021/07/26 02:33:34;;;;;;;6.22;3.85;;;;;;;;;;8224663;28;20356;-72
2021/07/26 02:37:39;;;;;;;5.68;3.35;;;;;;;;;;8225725;28;20364;-72
2021/07/26 02:41:44;;;;;;;6.68;3.58;;;;;;;;;;8207265;28;20364;-73
2021/07/26 02:45:49;;;;;;;7.40;3.80;;;;;;;;;;8226570;28;20349;-72
2021/07/26 02:49:54;;;;;;;7.07;3.50;;;;;;;;;;8207430;28;20364;-72
2021/07/26 02:53:59;;;;;;;10.80;3.95;;;;;;;;;;8224497;28;20034;-72
2021/07/26 02:58:07;;;;;;;6.03;3.53;;;;;;;;;;8226658;28;20376;-73
2021/07/26 03:02:12;;;;;;;8.07;3.97;;;;;;;;;;8225099;28;20449;-72
2021/07/26 03:06:18;;;;;;;4.55;3.38;;;;;;;;;;8206626;28;20054;-72
2021/07/26 03:10:23;;;;;;;5.25;3.28;;;;;;;;;;8206773;28;20357;-72
2021/07/26 03:14:29;;;;;;;5.50;3.65;;;;;;;;;;8226957;28;20380;-72
2021/07/26 03:18:34;;;;;;;4.90;3.65;;;;;;;;;;8207673;28;20037;-72
2021/07/26 03:22:58;;;;;;;5.65;3.72;;;;;;;;;;8207792;28;20484;-73
2021/07/26 03:27:04;;;;;;;8.10;3.58;;;;;;;;;;8207229;28;20481;-73
2021/07/26 03:31:09;;;;;;;8.90;4.38;;;;;;;;;;8206940;28;20053;-72
2021/07/26 03:35:15;;;;;;;8.23;4.30;;;;;;;;;;8208635;28;20669;-72
2021/07/26 03:39:20;;;;;;;9.13;4.57;;;;;;;;;;8207405;28;20464;-72
2021/07/26 03:43:27;;;;;;;8.38;3.47;;;;;;;;;;8208301;28;20353;-73
2021/07/26 03:47:32;;;;;;;5.38;4.00;;;;;;;;;;8230488;28;20403;-72
2021/07/26 03:51:37;;;;;;;7.15;3.60;;;;;;;;;;8232144;28;20369;-73
2021/07/26 03:55:41;;;;;;;6.70;4.28;;;;;;;;;;8229213;28;20063;-72
2021/07/26 03:59:47;;;;;;;6.53;4.22;;;;;;;;;;8230048;28;20355;-73
2021/07/26 04:03:52;;;;;;;5.43;3.92;;;;;;;;;;8194821;28;20497;-72
2021/07/26 04:07:57;;;;;;;10.18;4.40;;;;;;;;;;8211406;28;20113;-72
2021/07/26 04:12:05;;;;;;;11.43;4.88;;;;;;;;;;8196318;28;20453;-73
2021/07/26 04:16:10;;;;;;;7.20;5.20;;;;;;;;;;8195657;28;20497;-72
2021/07/26 04:20:15;;;;;;;5.50;4.00;;;;;;;;;;8196686;28;20413;-73
2021/07/26 04:24:20;;;;;;;5.93;4.45;;;;;;;;;;8195842;28;20373;-72
2021/07/26 04:28:25;;;;;;;6.75;4.38;;;;;;;;;;8196927;28;20064;-72
2021/07/26 04:32:30;;;;;;;7.63;4.90;;;;;;;;;;8155718;28;20428;-72
2021/07/26 04:36:35;;;;;;;8.88;5.22;;;;;;;;;;8198583;28;20368;-72
2021/07/26 04:40:40;;;;;;;7.55;5.30;;;;;;;;;;8196403;28;20388;-72
2021/07/26 04:44:45;;;;;;;6.50;4.60;;;;;;;;;;8198665;28;20483;-73
2021/07/26 04:48:50;;;;;;;11.77;6.60;;;;;;;;;;8195475;28;20346;-72
2021/07/26 04:52:55;;;;;;;8.23;5.35;;;;;;;;;;8194866;28;20042;-73
2021/07/26 04:56:59;;;;;;;7.75;5.25;;;;;;;;;;8197371;28;20072;-72
2021/07/26 05:01:05;;;;;;;7.95;5.60;;;;;;;;;;8195726;28;20404;-72
2021/07/26 05:05:10;;;;;;;6.82;5.13;;;;;;;;;;8226745;28;20384;-72
2021/07/26 05:09:15;;;;;;;9.50;5.32;;;;;;;;;;8228610;28;20420;-72
2021/07/26 05:13:20;;;;;;;9.50;4.97;;;;;;;;;;8228838;28;20045;-73
2021/07/26 05:17:26;;;;;;;7.68;5.38;;;;;;;;;;8228146;28;20369;-72
2021/07/26 05:21:33;;;;;;;7.95;5.50;;;;;;;;;;8226686;28;20518;-72
2021/07/26 05:25:37;;;;;;;7.63;5.38;;;;;;;;;;8210859;28;20046;-71
2021/07/26 05:31:00;;;;;;;7.80;5.13;;;;;;;;;;8300888;28;1471514;-72
2021/07/26 05:35:07;;;;;;;7.93;5.35;;;;;;;;;;8320121;28;20505;-72
2021/07/26 05:39:13;;;;;;;7.30;4.90;;;;;;;;;;8302086;28;20319;-72
2021/07/26 05:43:17;;;;;;;6.53;4.95;;;;;;;;;;8318763;28;20459;-72
2021/07/26 05:47:22;;;;;;;8.02;5.07;;;;;;;;;;8300140;28;20375;-72
2021/07/26 05:51:27;;;;;;;7.10;5.50;;;;;;;;;;8319423;28;20489;-72
2021/07/26 05:55:32;;;;;;;9.18;5.60;;;;;;;;;;8300842;28;20118;-72
2021/07/26 05:59:37;;;;;;;9.52;6.03;;;;;;;;;;8299668;28;20044;-72
2021/07/26 06:03:42;;;;;;;10.77;5.65;;;;;;;;;;8299575;28;20467;-72
2021/07/26 06:07:48;;;;;;;10.48;5.03;;;;;;;;;;8318512;28;20439;-71
2021/07/26 06:11:55;;;;;;;5.88;4.05;;;;;;;;;;8317950;28;20485;-72
2021/07/26 06:16:05;;;;;;;7.40;4.53;;;;;;;;;;8282963;28;20044;-72
2021/07/26 06:20:11;;;;;;;6.20;4.50;;;;;;;;;;8316796;28;20486;-71
2021/07/26 06:24:18;;;;;;;5.70;4.45;;;;;;;;;;8318788;28;20107;-71
2021/07/26 06:28:24;;;;;;;6.63;4.38;;;;;;;;;;8317028;28;20471;-72
2021/07/26 06:32:31;;;;;;;7.53;4.00;;;;;;;;;;8318576;28;20059;-71
2021/07/26 06:36:37;;;;;;;5.80;4.20;;;;;;;;;;8317716;28;20359;-72
2021/07/26 06:40:45;;;;;;;7.33;3.70;;;;;;;;;;8286696;28;20325;-72
2021/07/26 06:44:50;;;;;;;6.40;3.72;;;;;;;;;;8277776;28;20063;-73
2021/07/26 06:48:56;;;;;;;6.53;4.25;;;;;;;;;;8295098;28;20489;-71
2021/07/26 06:53:01;;;;;;;6.28;3.80;;;;;;;;;;8294237;28;20048;-72
2021/07/26 06:57:05;;;;;;;7.88;3.53;;;;;;;;;;8275056;28;20067;-72
2021/07/26 07:01:13;;;;;;;7.57;4.10;;;;;;;;;;8292137;28;20386;-72
2021/07/26 07:05:19;;;;;;;6.97;3.65;;;;;;;;;;8158917;28;20432;-72
2021/07/26 07:09:24;;;;;;;5.57;3.92;;;;;;;;;;8192158;28;20492;-73
2021/07/26 07:13:28;;;;;;;5.63;3.83;;;;;;;;;;8194582;28;20476;-72
2021/07/26 07:17:34;;;;;;;7.40;3.85;;;;;;;;;;8196962;28;20483;-72
2021/07/26 07:21:40;;;;;;;4.25;3.30;;;;;;;;;;8178367;28;20500;-72
2021/07/26 07:25:45;;;;;;;5.70;3.25;;;;;;;;;;8198319;28;20464;-72
2021/07/26 07:29:50;;;;;;;4.30;3.05;;;;;;;;;;8195569;28;20523;-71
2021/07/26 07:33:59;;;;;;;6.20;2.92;;;;;;;;;;8197375;28;20504;-72
2021/07/26 07:38:04;;;;;;;4.63;3.03;;;;;;;;;;8195034;28;20357;-72
2021/07/26 07:42:10;;;;;;;3.92;2.35;;;;;;;;;;8178351;28;20042;-71
2021/07/26 07:46:17;;;;;;;2.70;2.22;;;;;;;;;;8194738;28;20365;-72
2021/07/26 07:50:23;;;;;;;3.45;2.33;;;;;;;;;;8177203;28;20382;-72
2021/07/26 07:54:28;;;;;;;8.68;2.83;;;;;;;;;;8194043;28;20473;-72
2021/07/26 07:58:37;;;;;;;4.25;2.90;;;;;;;;;;8195682;28;20473;-72
2021/07/26 08:02:42;;;;;;;4.97;3.00;;;;;;;;;;8194476;28;20480;-71
2021/07/26 08:06:48;;;;;;;3.75;2.38;;;;;;;;;;8177259;28;20068;-72
2021/07/26 08:10:53;;;;;;;4.15;3.13;;;;;;;;;;8176941;28;20473;-71
2021/07/26 08:14:59;;;;;;;3.42;2.70;;;;;;;;;;8195581;28;20393;-72
2021/07/26 08:19:04;;;;;;;5.07;2.40;;;;;;;;;;8193846;28;20042;-71
2021/07/26 08:23:09;;;;;;;6.85;2.60;;;;;;;;;;8195272;28;20367;-73
2021/07/26 08:27:13;;;;;;;4.15;2.72;;;;;;;;;;8193424;28;20481;-71
2021/07/26 08:31:17;;;;;;;7.05;2.30;;;;;;;;;;8159883;28;20476;-72
2021/07/26 08:35:23;;;;;;;2.35;1.90;;;;;;;;;;8193529;28;20477;-72
2021/07/26 08:39:28;;;;;;;9.77;2.70;;;;;;;;;;8176966;28;20344;-73
2021/07/26 08:43:33;;;;;;;6.10;2.70;;;;;;;;;;8195785;28;20361;-72
2021/07/26 08:47:47;;;;;;;2.00;1.77;;;;;;;;;;8193712;28;20490;-72
2021/07/26 08:51:52;;;;;;;6.95;2.08;;;;;;;;;;8176930;28;20476;-72
2021/07/26 08:55:58;;;;;;;2.25;1.67;;;;;;;;;;8160950;28;20345;-71
2021/07/26 09:00:03;;;;;;;4.28;2.13;;;;;;;;;;8194805;28;20484;-72
2021/07/26 09:04:24;;;;;;;3.45;2.00;;;;;;;;;;8192687;28;20042;-72
2021/07/26 09:08:37;;;;;;;4.07;2.53;;;;;;;;;;8175689;28;20366;-72
2021/07/26 09:12:44;;;;;;;4.55;2.97;;;;;;;;;;8192286;28;20400;-72
2021/07/26 09:16:58;;;;;;;3.33;2.38;;;;;;;;;;8158073;28;20469;-71
2021/07/26 09:21:03;;;;;;;5.68;2.38;;;;;;;;;;8177887;28;20360;-71
2021/07/26 09:25:30;;;;;;;4.75;2.28;;;;;;;;;;8195349;28;20415;-72
2021/07/26 09:29:35;;;;;;;5.70;2.55;;;;;;;;;;8205889;28;20468;-71
2021/07/26 09:33:39;;;;;;;5.15;2.35;;;;;;;;;;8205270;28;20384;-72
2021/07/26 09:37:44;;;;;;;3.30;2.10;;;;;;;;;;8206421;28;20467;-72
2021/07/26 09:41:49;;;;;;;4.68;2.05;;;;;;;;;;8224961;28;20042;-71
2021/07/26 09:45:55;;;;;;;6.53;2.50;;;;;;;;;;8223788;28;20507;-72
2021/07/26 09:50:02;;;;;;;3.63;2.43;;;;;;;;;;8225320;28;20356;-73
2021/07/26 09:54:05;;;;;;;2.83;1.90;;;;;;;;;;8224533;28;20037;-71
2021/07/26 09:58:11;;;;;;;5.32;2.45;;;;;;;;;;8223467;28;20468;-72
2021/07/26 10:02:23;;;;;;;6.17;2.90;;;;;;;;;;8207191;28;20353;-73
2021/07/26 10:06:30;;;;;;;3.25;2.35;;;;;;;;;;8207892;28;20321;-71
2021/07/26 10:10:41;;;;;;;7.60;2.83;;;;;;;;;;8206043;28;20318;-71
2021/07/26 10:14:50;;;;;;;3.50;2.70;;;;;;;;;;8206966;28;20318;-73
2021/07/26 10:18:55;;;;;;;4.85;2.67;;;;;;;;;;8213481;28;20334;-72
2021/07/26 10:23:12;;;;;;;4.43;2.53;;;;;;;;;;8211896;28;20484;-72
2021/07/26 10:27:28;;;;;;;2.77;2.33;;;;;;;;;;8212135;28;20383;-72
2021/07/26 10:31:32;;;;;;;3.63;2.45;;;;;;;;;;8211790;28;20384;-72
2021/07/26 10:35:56;;;;;;;4.47;2.85;;;;;;;;;;8212240;28;20474;-72
2021/07/26 10:40:20;;;;;;;5.45;2.40;;;;;;;;;;8212273;28;20472;-71
2021/07/26 10:44:25;;;;;;;2.97;2.35;;;;;;;;;;8230922;28;20395;-72
2021/07/26 10:48:30;;;;;;;2.90;2.50;;;;;;;;;;8227705;28;20379;-72
2021/07/26 10:52:38;;;;;;;5.00;2.15;;;;;;;;;;8193322;28;20484;-72
2021/07/26 10:57:01;;;;;;;3.35;2.35;;;;;;;;;;8175483;28;20492;-72
2021/07/26 11:01:29;;;;;;;3.65;2.30;;;;;;;;;;8228958;28;20342;-72
2021/07/26 11:05:35;;;;;;;2.70;2.08;;;;;;;;;;8185241;28;20488;-72
2021/07/26 11:09:41;;;;;;;2.95;1.73;;;;;;;;;;8229238;28;20352;-73
2021/07/26 11:13:46;;;;;;;3.33;2.33;;;;;;;;;;8211999;28;20400;-73
2021/07/26 11:18:31;;;;;;;2.67;1.92;;;;;;;;;;8227735;28;20681;-72
2021/07/26 11:22:58;;;;;;;2.67;1.80;;;;;;;;;;8209335;28;20510;-72
2021/07/26 11:27:03;;;;;;;3.80;2.28;;;;;;;;;;8176453;28;20464;-73
2021/07/26 11:31:08;;;;;;;5.75;2.30;;;;;;;;;;8227055;28;20465;-74
2021/07/26 11:35:14;;;;;;;5.55;2.10;;;;;;;;;;8228339;28;20389;-72
2021/07/26 11:39:19;;;;;;;6.35;2.40;;;;;;;;;;8210370;28;20444;-72
2021/07/26 11:43:36;;;;;;;2.90;2.50;;;;;;;;;;8209111;28;20072;-73
2021/07/26 11:47:42;;;;;;;3.25;2.03;;;;;;;;;;8209550;28;20368;-73
2021/07/26 11:51:48;;;;;;;5.07;2.30;;;;;;;;;;8209574;28;20045;-72
2021/07/26 11:55:53;;;;;;;4.32;2.20;;;;;;;;;;8209774;28;20338;-73
2021/07/26 12:00:04;;;;;;;3.03;2.10;;;;;;;;;;8208364;28;20484;-72
2021/07/26 12:04:13;;;;;;;4.40;2.75;;;;;;;;;;8226336;28;20502;-73
2021/07/26 12:08:19;;;;;;;4.32;2.50;;;;;;;;;;8227528;28;20470;-74
2021/07/26 12:12:25;;;;;;;2.92;2.30;;;;;;;;;;8208933;28;20361;-71
2021/07/26 12:16:30;;;;;;;3.42;2.30;;;;;;;;;;8208744;28;20045;-72
2021/07/26 12:20:44;;;;;;;4.30;2.60;;;;;;;;;;8209556;28;20399;-70
2021/07/26 12:25:00;;;;;;;6.40;2.45;;;;;;;;;;8207927;28;20431;-73
2021/07/26 12:29:11;;;;;;;4.72;3.10;;;;;;;;;;8204517;28;20450;-72
2021/07/26 12:33:29;;;;;;;3.45;2.70;;;;;;;;;;8192361;28;20474;-72
2021/07/26 12:37:34;;;;;;;5.63;3.03;;;;;;;;;;8191349;28;20384;-72
2021/07/26 12:41:41;;;;;;;3.90;2.75;;;;;;;;;;8225601;28;20396;-72
2021/07/26 12:45:57;;;;;;;4.40;2.78;;;;;;;;;;8208093;28;20376;-72
2021/07/26 12:50:02;;;;;;;4.75;3.25;;;;;;;;;;8225969;28;20456;-72
2021/07/26 12:54:07;;;;;;;4.40;2.85;;;;;;;;;;8207581;28;20400;-72
2021/07/26 12:58:15;;;;;;;4.55;3.20;;;;;;;;;;8225223;28;20456;-71
2021/07/26 13:02:19;;;;;;;5.05;3.60;;;;;;;;;;8208528;28;20470;-71
2021/07/26 13:06:25;;;;;;;4.82;3.28;;;;;;;;;;8226274;28;20077;-72
2021/07/26 13:10:32;;;;;;;6.18;3.35;;;;;;;;;;8208457;28;20448;-73
2021/07/26 13:14:37;;;;;;;4.70;3.30;;;;;;;;;;8223458;28;20384;-72
2021/07/26 13:18:41;;;;;;;6.75;3.75;;;;;;;;;;8205922;28;20492;-71
2021/07/26 13:22:47;;;;;;;5.07;3.58;;;;;;;;;;8227528;28;20487;-72
2021/07/26 13:26:51;;;;;;;5.60;3.85;;;;;;;;;;8223743;28;20349;-73
2021/07/26 13:30:56;;;;;;;4.43;3.55;;;;;;;;;;8208764;28;20448;-72
2021/07/26 13:35:01;;;;;;;5.80;3.47;;;;;;;;;;8207068;28;20432;-72
2021/07/26 13:39:08;;;;;;;5.45;3.60;;;;;;;;;;8206402;28;20468;-73
2021/07/26 13:43:13;;;;;;;5.25;3.85;;;;;;;;;;8256742;28;20399;-73
2021/07/26 13:47:18;;;;;;;7.50;4.35;;;;;;;;;;8256161;28;20468;-73
2021/07/26 13:51:23;;;;;;;5.13;3.72;;;;;;;;;;8243144;28;20364;-72
2021/07/26 13:55:28;;;;;;;4.72;3.78;;;;;;;;;;8264014;28;20348;-71
2021/07/26 13:59:33;;;;;;;8.63;4.30;;;;;;;;;;8264460;28;20352;-72
2021/07/26 14:03:38;;;;;;;7.20;4.18;;;;;;;;;;8263377;28;20407;-72
2021/07/26 14:07:42;;;;;;;4.82;3.55;;;;;;;;;;8262528;28;20472;-72
2021/07/26 14:11:47;;;;;;;7.78;3.97;;;;;;;;;;8264904;28;20367;-72
2021/07/26 14:15:52;;;;;;;6.18;4.05;;;;;;;;;;8261477;28;20048;-71
2021/07/26 14:19:57;;;;;;;5.20;3.90;;;;;;;;;;8228695;28;20537;-72
2021/07/26 14:24:03;;;;;;;5.45;4.18;;;;;;;;;;8261394;28;20375;-72
2021/07/26 14:28:07;;;;;;;7.18;4.20;;;;;;;;;;8262133;28;20048;-72
2021/07/26 14:32:13;;;;;;;5.07;3.70;;;;;;;;;;8262752;28;20341;-72
2021/07/26 14:36:18;;;;;;;8.40;4.28;;;;;;;;;;8228152;28;20496;-72
2021/07/26 14:40:23;;;;;;;7.90;4.03;;;;;;;;;;8244963;28;20060;-72
2021/07/26 14:44:28;;;;;;;6.55;4.03;;;;;;;;;;8261638;28;20357;-72
2021/07/26 14:48:33;;;;;;;5.05;3.75;;;;;;;;;;8261214;28;20356;-71
2021/07/26 14:52:38;;;;;;;6.55;3.92;;;;;;;;;;8261889;28;20494;-71
2021/07/26 14:56:43;;;;;;;13.40;3.70;;;;;;;;;;8261297;28;20641;-72
2021/07/26 15:00:49;;;;;;;7.03;3.53;;;;;;;;;;8260575;28;20045;-72
2021/07/26 15:04:54;;;;;;;5.35;3.97;;;;;;;;;;8264331;28;20399;-70
2021/07/26 15:08:59;;;;;;;6.05;3.67;;;;;;;;;;8243601;28;20476;-72
2021/07/26 15:13:04;;;;;;;7.97;4.13;;;;;;;;;;8260894;28;20482;-72
2021/07/26 15:17:09;;;;;;;4.68;3.38;;;;;;;;;;8263014;28;20483;-72
2021/07/26 15:21:15;;;;;;;4.88;3.80;;;;;;;;;;8243752;28;20483;-72
2021/07/26 15:25:20;;;;;;;5.65;3.65;;;;;;;;;;8261111;28;20345;-72
2021/07/26 15:29:25;;;;;;;5.85;3.58;;;;;;;;;;8242959;28;20388;-71
2021/07/26 15:33:30;;;;;;;5.43;3.58;;;;;;;;;;8260664;28;20454;-72
2021/07/26 15:37:35;;;;;;;6.57;3.92;;;;;;;;;;8242180;28;20057;-72
2021/07/26 15:41:42;;;;;;;4.85;3.50;;;;;;;;;;8262308;28;20486;-72
2021/07/26 15:45:47;;;;;;;8.25;3.78;;;;;;;;;;8260817;28;20364;-73
2021/07/26 15:49:51;;;;;;;5.45;3.40;;;;;;;;;;8244111;28;20391;-72
2021/07/26 15:53:57;;;;;;;4.47;3.28;;;;;;;;;;8225885;28;20372;-71
2021/07/26 15:58:04;;;;;;;9.35;3.17;;;;;;;;;;8260070;28;20491;-72
2021/07/26 16:02:09;;;;;;;5.13;3.13;;;;;;;;;;8259764;28;20037;-72
2021/07/26 16:06:13;;;;;;;4.38;2.80;;;;;;;;;;8259240;28;20341;-72
2021/07/26 16:10:18;;;;;;;8.32;3.38;;;;;;;;;;8241986;28;20395;-72
2021/07/26 16:14:24;;;;;;;5.68;3.50;;;;;;;;;;8239383;28;20464;-72
2021/07/26 16:18:29;;;;;;;6.72;3.53;;;;;;;;;;8240007;28;20486;-72
2021/07/26 16:22:34;;;;;;;7.80;2.90;;;;;;;;;;8240420;28;20327;-73
2021/07/26 16:26:39;;;;;;;6.22;2.55;;;;;;;;;;8260397;28;20495;-72
2021/07/26 16:30:45;;;;;;;6.75;3.60;;;;;;;;;;8241011;28;20514;-72
2021/07/26 16:34:50;;;;;;;5.43;2.97;;;;;;;;;;8258768;28;20571;-72
2021/07/26 16:38:55;;;;;;;6.38;2.63;;;;;;;;;;8206155;28;20353;-72
2021/07/26 16:42:59;;;;;;;5.28;2.58;;;;;;;;;;8241205;28;20467;-72
2021/07/26 16:47:04;;;;;;;3.88;2.53;;;;;;;;;;8257723;28;20376;-72
2021/07/26 16:51:09;;;;;;;7.65;3.20;;;;;;;;;;8257822;28;20488;-73
2021/07/26 16:55:15;;;;;;;10.18;3.55;;;;;;;;;;8154657;28;20502;-72
2021/07/26 16:59:20;;;;;;;4.25;2.90;;;;;;;;;;8237302;28;20364;-72
2021/07/26 17:03:25;;;;;;;5.47;3.17;;;;;;;;;;8240251;28;20411;-72
2021/07/26 17:07:30;;;;;;;5.20;2.42;;;;;;;;;;8238553;28;20486;-73
2021/07/26 17:11:35;;;;;;;5.60;2.67;;;;;;;;;;8256554;28;20478;-72
2021/07/26 17:15:41;;;;;;;4.63;2.58;;;;;;;;;;8188675;28;20377;-72
2021/07/26 17:19:45;;;;;;;5.05;2.65;;;;;;;;;;8257300;28;20448;-72
2021/07/26 17:23:51;;;;;;;5.72;2.80;;;;;;;;;;8239308;28;20376;-72
2021/07/26 17:27:55;;;;;;;5.53;2.72;;;;;;;;;;8238982;28;20441;-72
2021/07/26 17:31:59;;;;;;;5.15;3.22;;;;;;;;;;8259741;28;20092;-72
2021/07/26 17:36:05;;;;;;;8.13;3.28;;;;;;;;;;8257407;28;20356;-73
2021/07/26 17:40:10;;;;;;;4.95;3.03;;;;;;;;;;8238599;28;20041;-75
2021/07/26 17:44:15;;;;;;;8.45;4.25;;;;;;;;;;8223098;28;20178;-72
2021/07/26 17:48:20;;;;;;;12.73;4.65;;;;;;;;;;8206814;28;20427;-72
2021/07/26 17:52:25;;;;;;;8.30;4.15;;;;;;;;;;8239570;28;20372;-72
2021/07/26 17:56:31;;;;;;;8.25;3.80;;;;;;;;;;8257002;28;20055;-72
2021/07/26 18:00:40;;;;;;;7.45;3.60;;;;;;;;;;8240032;28;20371;-73
2021/07/26 18:04:46;;;;;;;6.68;3.42;;;;;;;;;;8238549;28;20402;-73
2021/07/26 18:08:51;;;;;;;5.85;3.50;;;;;;;;;;8256671;28;20313;-72
2021/07/26 18:12:56;;;;;;;5.28;3.42;;;;;;;;;;8258195;28;20399;-72
2021/07/26 18:17:12;;;;;;;7.83;3.87;;;;;;;;;;8223008;28;20501;-73
2021/07/26 18:21:18;;;;;;;4.72;3.00;;;;;;;;;;8221790;28;20479;-72
2021/07/26 18:25:22;;;;;;;10.43;3.45;;;;;;;;;;8254633;28;20044;-72
2021/07/26 18:29:28;;;;;;;6.03;3.20;;;;;;;;;;8221130;28;20377;-72
2021/07/26 18:33:34;;;;;;;7.28;3.63;;;;;;;;;;8237022;28;20480;-72
2021/07/26 18:37:38;;;;;;;4.97;3.40;;;;;;;;;;8242290;28;20467;-73
2021/07/26 18:41:43;;;;;;;7.25;4.97;;;;;;;;;;8244417;28;20440;-72
2021/07/26 18:45:48;;;;;;;7.47;4.25;;;;;;;;;;8263870;28;20057;-73
2021/07/26 18:49:53;;;;;;;8.85;4.28;;;;;;;;;;8244262;28;20372;-73
2021/07/26 18:53:59;;;;;;;9.27;4.60;;;;;;;;;;8245503;28;20475;-72
2021/07/26 18:58:06;;;;;;;7.60;4.70;;;;;;;;;;8261751;28;20468;-73
2021/07/26 19:02:11;;;;;;;14.23;7.05;;;;;;;;;;8245066;28;20336;-73
2021/07/26 19:06:16;;;;;;;13.07;7.45;;;;;;;;;;8242627;28;20456;-73
2021/07/26 19:10:22;;;;;;;11.57;6.00;;;;;;;;;;8242796;28;20395;-73
2021/07/26 19:14:27;;;;;;;11.23;5.00;;;;;;;;;;8263489;28;20498;-73
2021/07/26 19:18:33;;;;;;;11.10;5.47;;;;;;;;;;8227905;28;20392;-72
2021/07/26 19:22:39;;;;;;;17.33;6.88;;;;;;;;;;8244479;28;20456;-73
2021/07/26 19:26:44;;;;;;;9.57;6.23;;;;;;;;;;8259836;28;20452;-73
2021/07/26 19:30:49;;;;;;;10.35;5.57;;;;;;;;;;8259843;28;20491;-73
2021/07/26 19:34:53;;;;;;;8.43;5.65;;;;;;;;;;8208647;28;20399;-72
2021/07/26 19:38:59;;;;;;;9.23;5.80;;;;;;;;;;8261559;28;20478;-72
2021/07/26 19:43:03;;;;;;;8.43;4.88;;;;;;;;;;8261009;28;20340;-72
2021/07/26 19:47:08;;;;;;;8.57;5.78;;;;;;;;;;8259006;28;20372;-72
2021/07/26 19:51:13;;;;;;;12.80;5.35;;;;;;;;;;8259215;28;20362;-72
2021/07/26 19:55:18;;;;;;;8.20;5.57;;;;;;;;;;8259120;28;20087;-71
2021/07/26 19:59:23;;;;;;;6.63;5.07;;;;;;;;;;8225009;28;20565;-72
2021/07/26 20:03:28;;;;;;;7.68;5.15;;;;;;;;;;8259683;28;20347;-72
2021/07/26 20:07:33;;;;;;;9.10;5.28;;;;;;;;;;8241608;28;20341;-72
2021/07/26 20:11:38;;;;;;;8.68;4.93;;;;;;;;;;8260532;28;20045;-72
2021/07/26 20:15:44;;;;;;;8.50;5.47;;;;;;;;;;8242012;28;20344;-72
2021/07/26 20:19:50;;;;;;;6.35;4.97;;;;;;;;;;8241218;28;20484;-72
2021/07/26 20:23:54;;;;;;;9.23;5.25;;;;;;;;;;8241035;28;20045;-72
2021/07/26 20:27:59;;;;;;;10.65;5.50;;;;;;;;;;8258174;28;20346;-72
2021/07/26 20:32:03;;;;;;;8.13;5.55;;;;;;;;;;8240430;28;20072;-72
2021/07/26 20:36:09;;;;;;;11.85;5.88;;;;;;;;;;8256186;28;20348;-72
2021/07/26 20:40:14;;;;;;;8.90;5.47;;;;;;;;;;8259249;28;20328;-72
2021/07/26 20:44:19;;;;;;;10.30;5.57;;;;;;;;;;8258091;28;20066;-72
2021/07/26 20:48:24;;;;;;;8.77;5.28;;;;;;;;;;8257607;28;20350;-71
2021/07/26 20:52:29;;;;;;;7.72;5.07;;;;;;;;;;8239390;28;20490;-72
2021/07/26 20:56:34;;;;;;;7.63;5.57;;;;;;;;;;8223503;28;20388;-72
2021/07/26 21:00:39;;;;;;;11.90;5.65;;;;;;;;;;8239612;28;20146;-72
2021/07/26 21:04:44;;;;;;;11.25;6.00;;;;;;;;;;8239044;28;20502;-72
2021/07/26 21:09:04;;;;;;;9.77;6.55;;;;;;;;;;8244409;28;20472;-72
2021/07/26 21:13:08;;;;;;;13.45;6.43;;;;;;;;;;8257848;28;20371;-72
2021/07/26 21:17:28;;;;;;;15.07;6.18;;;;;;;;;;8240239;28;20479;-73
2021/07/26 21:21:35;;;;;;;11.18;6.55;;;;;;;;;;8256103;28;20376;-72
2021/07/26 21:25:41;;;;;;;10.20;5.90;;;;;;;;;;8257295;28;20387;-72
2021/07/26 21:29:46;;;;;;;9.90;5.93;;;;;;;;;;8274335;28;20590;-73
2021/07/26 21:33:51;;;;;;;11.48;6.35;;;;;;;;;;8289782;28;20480;-72
2021/07/26 21:37:56;;;;;;;12.77;6.30;;;;;;;;;;8289550;28;20464;-72
2021/07/26 21:42:02;;;;;;;10.32;6.38;;;;;;;;;;8289517;28;20406;-72
2021/07/26 21:46:06;;;;;;;12.63;6.90;;;;;;;;;;8289128;28;20447;-71
2021/07/26 21:50:12;;;;;;;9.35;6.32;;;;;;;;;;8290244;28;20362;-72
2021/07/26 21:54:16;;;;;;;15.52;6.47;;;;;;;;;;8289212;28;20532;-72
2021/07/26 21:58:21;;;;;;;10.30;6.40;;;;;;;;;;8288375;28;20406;-72
2021/07/26 22:02:26;;;;;;;10.05;5.80;;;;;;;;;;8271790;28;20367;-72
2021/07/26 22:06:32;;;;;;;10.40;6.35;;;;;;;;;;8271426;28;20371;-72
2021/07/26 22:10:40;;;;;;;10.77;6.35;;;;;;;;;;8290876;28;20463;-72
2021/07/26 22:14:46;;;;;;;9.50;5.60;;;;;;;;;;8294827;28;20475;-72
2021/07/26 22:18:51;;;;;;;12.25;5.53;;;;;;;;;;8294946;28;20399;-72
2021/07/26 22:22:56;;;;;;;10.57;5.90;;;;;;;;;;8295661;28;20358;-73
2021/07/26 22:27:01;;;;;;;10.75;5.72;;;;;;;;;;8294809;28;20483;-72
2021/07/26 22:31:07;;;;;;;8.68;5.95;;;;;;;;;;8295006;28;20391;-72
2021/07/26 22:35:12;;;;;;;10.05;5.25;;;;;;;;;;8294444;28;20406;-73
2021/07/26 22:39:17;;;;;;;11.45;5.13;;;;;;;;;;8275751;28;20490;-72
2021/07/26 22:43:23;;;;;;;12.07;4.22;;;;;;;;;;8295803;28;20483;-72
2021/07/26 22:47:29;;;;;;;7.55;4.07;;;;;;;;;;8277344;28;20067;-72
2021/07/26 22:51:34;;;;;;;9.63;3.78;;;;;;;;;;8278507;28;20489;-73
2021/07/26 22:55:39;;;;;;;9.23;3.80;;;;;;;;;;8296447;28;20398;-73
2021/07/26 22:59:44;;;;;;;8.30;3.30;;;;;;;;;;8294649;28;20469;-74
2021/07/26 23:03:49;;;;;;;6.78;3.53;;;;;;;;;;8294526;28;20489;-74
2021/07/26 23:07:54;;;;;;;6.10;3.78;;;;;;;;;;8276310;28;20101;-73
2021/07/26 23:11:58;;;;;;;5.45;3.50;;;;;;;;;;8292695;28;20459;-73
2021/07/26 23:16:08;;;;;;;6.53;4.03;;;;;;;;;;8275128;28;20493;-73
2021/07/26 23:20:13;;;;;;;6.47;3.80;;;;;;;;;;8259335;28;20353;-73
2021/07/26 23:24:19;;;;;;;8.57;3.60;;;;;;;;;;8275033;28;20463;-73
2021/07/26 23:28:24;;;;;;;10.52;4.72;;;;;;;;;;8292641;28;20073;-73
2021/07/26 23:32:30;;;;;;;5.90;3.60;;;;;;;;;;8274681;28;20471;-73
2021/07/26 23:36:36;;;;;;;8.63;4.20;;;;;;;;;;8275873;28;20044;-72
2021/07/26 23:40:41;;;;;;;6.85;4.15;;;;;;;;;;8293244;28;20478;-72
2021/07/26 23:44:46;;;;;;;7.78;3.85;;;;;;;;;;8258894;28;20471;-73
2021/07/26 23:48:51;;;;;;;8.55;4.38;;;;;;;;;;8292587;28;20477;-72
2021/07/26 23:52:55;;;;;;;10.82;4.43;;;;;;;;;;8258518;28;20455;-73
2021/07/26 23:57:00;;;;;;;7.28;4.18;;;;;;;;;;8274782;28;20367;-72
